createdAt,value
2022-10-17T00:01:16.878Z,76.60
2022-10-17T00:03:43.743Z,76.60
2022-10-17T00:06:14.630Z,76.50
2022-10-17T00:08:42.757Z,76.50
2022-10-17T00:11:17.234Z,76.40
2022-10-17T00:13:45.899Z,76.40
2022-10-17T00:16:12.842Z,76.30
2022-10-17T00:18:39.896Z,76.20
2022-10-17T00:21:06.966Z,76.10
2022-10-17T00:23:34.155Z,76.00
2022-10-17T00:26:05.983Z,75.90
2022-10-17T00:28:34.154Z,75.80
2022-10-17T00:31:04.659Z,75.80
2022-10-17T00:33:34.262Z,75.80
2022-10-17T00:36:18.326Z,75.70
2022-10-17T00:38:48.251Z,75.70
2022-10-17T00:41:19.091Z,75.40
2022-10-17T00:44:08.120Z,75.30
2022-10-17T00:46:37.778Z,75.50
2022-10-17T00:49:11.441Z,75.30
2022-10-17T00:51:44.253Z,75.50
2022-10-17T00:54:13.493Z,75.60
2022-10-17T00:56:40.782Z,75.70
2022-10-17T00:59:11.487Z,75.80
2022-10-17T01:01:41.907Z,76.00
2022-10-17T01:04:10.083Z,76.20
2022-10-17T01:06:39.583Z,76.30
2022-10-17T01:09:06.895Z,76.40
2022-10-17T01:12:04.548Z,76.60
2022-10-17T01:15:10.553Z,76.90
2022-10-17T01:17:55.226Z,77.10
2022-10-17T01:21:02.448Z,77.00
2022-10-17T01:24:21.144Z,77.20
2022-10-17T01:27:10.497Z,77.00
2022-10-17T01:30:10.028Z,76.50
2022-10-17T01:32:58.419Z,76.80
2022-10-17T01:35:31.317Z,76.60
2022-10-17T01:38:12.775Z,76.40
2022-10-17T01:40:57.578Z,76.80
2022-10-17T01:43:41.972Z,76.80
2022-10-17T01:46:35.350Z,77.00
2022-10-17T01:49:05.686Z,76.80
2022-10-17T01:52:09.812Z,76.80
2022-10-17T01:54:46.915Z,76.90
2022-10-17T01:57:49.870Z,77.00
2022-10-17T02:00:23.774Z,77.20
2022-10-17T02:03:00.901Z,77.20
2022-10-17T02:05:41.846Z,77.40
2022-10-17T02:08:10.786Z,77.70
2022-10-17T02:10:50.292Z,77.50
2022-10-17T02:14:00.558Z,77.80
2022-10-17T02:16:48.479Z,78.00
2022-10-17T02:19:44.304Z,78.00
2022-10-17T02:22:42.211Z,78.50
2022-10-17T02:25:39.035Z,78.50
2022-10-17T02:28:40.402Z,78.50
2022-10-17T02:31:16.607Z,78.70
2022-10-17T02:34:01.294Z,78.90
2022-10-17T02:36:40.069Z,79.30
2022-10-17T02:39:09.342Z,79.40
2022-10-17T02:41:38.600Z,79.30
2022-10-17T02:44:07.704Z,79.30
2022-10-17T02:46:35.981Z,79.30
2022-10-17T02:49:07.701Z,79.40
2022-10-17T02:51:57.938Z,79.60
2022-10-17T02:54:50.921Z,79.80
2022-10-17T02:57:31.985Z,80.00
2022-10-17T03:00:01.763Z,80.00
2022-10-17T03:02:38.492Z,79.80
2022-10-17T03:05:07.859Z,79.80
2022-10-17T03:07:34.903Z,79.80
2022-10-17T03:10:02.174Z,79.80
2022-10-17T03:12:30.424Z,79.70
2022-10-17T03:14:58.351Z,79.80
2022-10-17T03:17:25.645Z,79.90
2022-10-17T03:19:52.940Z,79.80
2022-10-17T03:25:11.332Z,80.20
2022-10-17T03:27:38.339Z,80.40
2022-10-17T03:30:06.181Z,80.50
2022-10-17T03:32:34.647Z,80.60
2022-10-17T03:35:02.177Z,80.80
2022-10-17T03:37:29.907Z,80.90
2022-10-17T03:39:57.035Z,80.90
2022-10-17T03:42:24.090Z,80.80
2022-10-17T03:44:51.665Z,80.80
2022-10-17T03:47:18.654Z,80.80
2022-10-17T03:49:46.143Z,80.80
2022-10-17T03:52:15.755Z,80.70
2022-10-17T03:54:42.665Z,80.60
2022-10-17T03:57:09.655Z,80.50
2022-10-17T03:59:36.906Z,80.40
2022-10-17T04:02:09.746Z,80.30
2022-10-17T04:04:36.668Z,80.20
2022-10-17T04:07:03.961Z,80.10
2022-10-17T04:09:30.925Z,80.10
2022-10-17T04:12:06.666Z,80.10
2022-10-17T04:14:36.841Z,80.20
2022-10-17T04:17:04.374Z,80.30
2022-10-17T04:19:32.526Z,80.40
2022-10-17T04:21:59.682Z,80.50
2022-10-17T04:24:28.841Z,80.70
2022-10-17T04:27:10.388Z,80.70
2022-10-17T04:29:41.291Z,80.80
2022-10-17T04:32:17.147Z,81.10
2022-10-17T04:35:04.866Z,81.00
2022-10-17T04:37:32.578Z,81.10
2022-10-17T04:40:02.646Z,81.30
2022-10-17T04:42:32.749Z,81.40
2022-10-17T04:45:25.117Z,81.50
2022-10-17T04:47:57.680Z,81.60
2022-10-17T04:50:25.104Z,82.60
2022-10-17T04:53:11.950Z,82.00
2022-10-17T04:55:39.708Z,82.20
2022-10-17T04:58:06.877Z,82.50
2022-10-17T05:00:33.970Z,82.70
2022-10-17T05:03:05.586Z,82.90
2022-10-17T05:05:33.385Z,83.20
2022-10-17T05:08:01.683Z,83.40
2022-10-17T05:10:41.051Z,83.60
2022-10-17T05:13:09.276Z,83.80
2022-10-17T05:15:37.968Z,83.70
2022-10-17T05:18:07.240Z,83.80
2022-10-17T05:20:34.874Z,83.90
2022-10-17T05:23:02.595Z,84.00
2022-10-17T05:25:34.915Z,84.20
2022-10-17T05:28:01.976Z,84.20
2022-10-17T05:30:30.643Z,84.40
2022-10-17T05:33:01.387Z,84.50
2022-10-17T05:35:28.739Z,84.60
2022-10-17T05:37:56.111Z,84.80
2022-10-17T05:40:25.188Z,84.70
2022-10-17T05:42:53.811Z,84.80
2022-10-17T05:45:22.560Z,84.90
2022-10-17T05:47:49.598Z,85.00
2022-10-17T05:50:17.003Z,85.10
2022-10-17T05:53:02.137Z,85.20
2022-10-17T05:55:29.162Z,85.40
2022-10-17T05:57:58.454Z,85.40
2022-10-17T06:00:28.907Z,85.50
2022-10-17T06:02:58.418Z,85.50
2022-10-17T06:05:25.610Z,85.70
2022-10-17T06:07:55.981Z,85.90
2022-10-17T06:10:25.313Z,86.00
2022-10-17T06:12:53.323Z,86.10
2022-10-17T06:15:20.905Z,86.30
2022-10-17T06:17:54.366Z,86.40
2022-10-17T06:20:21.578Z,86.50
2022-10-17T06:22:48.497Z,86.60
2022-10-17T06:25:23.846Z,86.70
2022-10-17T06:27:51.302Z,86.80
2022-10-17T06:30:18.350Z,87.00
2022-10-17T06:32:45.984Z,87.30
2022-10-17T06:35:13.047Z,87.50
2022-10-17T06:37:41.846Z,87.80
2022-10-17T06:40:12.320Z,88.60
2022-10-17T06:42:41.054Z,88.00
2022-10-17T06:45:23.767Z,88.00
2022-10-17T06:48:13.883Z,88.10
2022-10-17T06:50:51.744Z,88.00
2022-10-17T06:53:30.914Z,87.80
2022-10-17T06:56:24.069Z,87.70
2022-10-17T06:59:10.913Z,87.50
2022-10-17T07:01:43.091Z,87.10
2022-10-17T07:04:14.050Z,86.70
2022-10-17T07:06:41.556Z,86.30
2022-10-17T07:09:16.929Z,85.70
2022-10-17T07:11:44.899Z,85.50
2022-10-17T07:14:11.942Z,85.10
2022-10-17T07:16:38.918Z,84.80
2022-10-17T07:19:16.250Z,84.60
2022-10-17T07:21:43.119Z,84.50
2022-10-17T07:24:11.651Z,84.10
2022-10-17T07:26:41.440Z,83.90
2022-10-17T07:29:12.032Z,83.30
2022-10-17T07:31:45.656Z,82.70
2022-10-17T07:34:12.895Z,82.10
2022-10-17T07:36:39.832Z,81.30
2022-10-17T07:39:08.196Z,80.50
2022-10-17T07:41:36.778Z,79.70
2022-10-17T07:44:04.851Z,78.60
2022-10-17T07:46:40.618Z,78.30
2022-10-17T07:49:07.616Z,77.90
2022-10-17T07:51:34.752Z,77.50
2022-10-17T07:54:01.807Z,76.70
2022-10-17T07:56:29.749Z,75.90
2022-10-17T07:58:59.897Z,75.00
2022-10-17T08:01:29.880Z,73.90
2022-10-17T08:03:57.268Z,73.10
2022-10-17T08:06:25.528Z,71.50
2022-10-17T08:08:53.383Z,70.00
2022-10-17T08:11:23.190Z,68.10
2022-10-17T08:13:50.636Z,66.90
2022-10-17T08:16:18.828Z,66.00
2022-10-17T08:18:46.833Z,64.40
2022-10-17T08:21:15.372Z,63.30
2022-10-17T08:23:43.386Z,62.00
2022-10-17T08:26:13.676Z,60.70
2022-10-17T08:28:42.228Z,59.60
2022-10-17T08:31:16.421Z,58.80
2022-10-17T08:33:45.190Z,57.90
2022-10-17T08:36:17.908Z,57.60
2022-10-17T08:38:51.669Z,56.60
2022-10-17T08:41:47.992Z,55.50
2022-10-17T08:44:41.002Z,54.10
2022-10-17T08:47:30.097Z,54.10
2022-10-17T08:50:04.177Z,53.80
2022-10-17T08:52:52.082Z,53.80
2022-10-17T08:55:45.691Z,52.70
2022-10-17T08:58:41.834Z,52.40
2022-10-17T09:01:51.297Z,53.00
2022-10-17T09:11:26.342Z,50.70
2022-10-17T09:14:38.952Z,49.10
2022-10-17T09:17:45.158Z,48.40
2022-10-17T09:20:31.121Z,48.20
2022-10-17T09:23:17.728Z,47.50
2022-10-17T09:25:50.897Z,46.30
2022-10-17T09:28:28.370Z,48.40
2022-10-17T09:31:03.915Z,44.30
2022-10-17T09:33:57.655Z,43.90
2022-10-17T09:36:31.966Z,43.70
2022-10-17T09:39:04.096Z,42.70
2022-10-17T09:44:47.738Z,42.10
2022-10-17T09:47:23.386Z,41.90
2022-10-17T09:52:48.869Z,42.60
2022-10-17T09:55:41.854Z,41.60
2022-10-17T09:58:11.236Z,41.30
2022-10-17T10:00:45.173Z,40.90
2022-10-17T10:03:27.645Z,40.70
2022-10-17T10:06:17.838Z,40.30
2022-10-17T10:09:00.512Z,40.60
2022-10-17T10:11:52.522Z,40.30
2022-10-17T10:14:33.419Z,40.20
2022-10-17T10:17:03.648Z,39.00
2022-10-17T10:19:37.403Z,38.30
2022-10-17T10:22:15.170Z,37.90
2022-10-17T10:24:42.493Z,37.60
2022-10-17T10:27:18.471Z,37.40
2022-10-17T10:29:53.314Z,36.60
2022-10-17T10:32:26.495Z,36.40
2022-10-17T10:35:18.869Z,36.10
2022-10-17T10:37:51.996Z,35.70
2022-10-17T10:40:25.286Z,35.60
2022-10-17T10:42:59.230Z,35.40
2022-10-17T10:45:48.465Z,35.80
2022-10-17T10:48:32.026Z,36.10
2022-10-17T10:54:44.164Z,35.50
2022-10-17T10:57:20.583Z,35.00
2022-10-17T11:00:14.273Z,35.00
2022-10-17T11:03:16.467Z,34.90
2022-10-17T11:05:54.612Z,34.10
2022-10-17T11:08:35.428Z,33.50
2022-10-17T11:11:13.712Z,34.20
2022-10-17T11:13:57.422Z,33.00
2022-10-17T11:17:01.258Z,32.70
2022-10-17T11:20:39.587Z,32.40
2022-10-17T11:23:31.314Z,32.20
2022-10-17T11:26:04.534Z,32.30
2022-10-17T11:28:31.948Z,32.30
2022-10-17T11:31:09.651Z,31.90
2022-10-17T11:33:49.618Z,30.50
2022-10-17T11:36:26.187Z,30.30
2022-10-17T11:39:00.388Z,30.20
2022-10-17T11:41:50.517Z,30.10
2022-10-17T11:44:35.844Z,29.90
2022-10-17T11:47:33.128Z,30.00
2022-10-17T11:53:46.524Z,29.80
2022-10-17T11:56:41.888Z,29.70
2022-10-17T11:59:40.656Z,29.90
2022-10-17T12:02:29.204Z,29.90
2022-10-17T12:05:20.495Z,29.90
2022-10-17T12:07:53.723Z,30.00
2022-10-17T12:10:54.384Z,30.00
2022-10-17T12:13:33.594Z,30.00
2022-10-17T12:16:19.275Z,30.20
2022-10-17T12:19:02.487Z,30.40
2022-10-17T12:21:56.656Z,30.30
2022-10-17T12:24:40.296Z,30.50
2022-10-17T12:27:48.061Z,30.60
2022-10-17T12:31:06.481Z,30.50
2022-10-17T12:34:02.625Z,30.60
2022-10-17T12:36:29.394Z,30.40
2022-10-17T12:39:01.977Z,30.00
2022-10-17T12:41:52.409Z,29.60
2022-10-17T12:44:21.934Z,29.70
2022-10-17T12:46:58.974Z,29.50
2022-10-17T12:49:48.391Z,29.50
2022-10-17T12:52:32.833Z,29.30
2022-10-17T12:55:13.723Z,29.00
2022-10-17T12:58:05.347Z,28.80
2022-10-17T13:00:43.816Z,28.90
2022-10-17T13:03:22.495Z,28.80
2022-10-17T13:05:56.895Z,28.80
2022-10-17T13:08:44.874Z,28.80
2022-10-17T13:11:13.765Z,28.00
2022-10-17T13:13:48.599Z,27.60
2022-10-17T13:16:31.700Z,27.70
2022-10-17T13:19:00.630Z,27.90
2022-10-17T13:21:29.085Z,27.90
2022-10-17T13:23:56.600Z,28.00
2022-10-17T13:26:27.321Z,28.10
2022-10-17T13:29:06.930Z,28.20
2022-10-17T13:31:38.074Z,28.40
2022-10-17T13:34:16.662Z,28.50
2022-10-17T13:36:48.864Z,28.70
2022-10-17T13:39:23.168Z,28.90
2022-10-17T13:41:56.907Z,29.30
2022-10-17T13:44:26.572Z,29.60
2022-10-17T13:46:54.087Z,29.90
2022-10-17T13:49:37.298Z,30.10
2022-10-17T13:52:06.670Z,30.50
2022-10-17T13:54:46.751Z,30.80
2022-10-17T13:57:24.356Z,31.30
2022-10-17T14:02:51.303Z,32.00
2022-10-17T14:05:21.087Z,32.30
2022-10-17T14:08:11.280Z,32.60
2022-10-17T14:10:42.081Z,33.00
2022-10-17T14:13:30.388Z,33.20
2022-10-17T14:16:02.001Z,33.70
2022-10-17T14:18:36.432Z,34.00
2022-10-17T14:24:13.165Z,34.80
2022-10-17T14:26:54.935Z,35.10
2022-10-17T14:29:25.485Z,35.60
2022-10-17T14:32:01.944Z,36.00
2022-10-17T14:34:37.676Z,36.50
2022-10-17T14:37:29.210Z,36.90
2022-10-17T14:40:00.556Z,37.20
2022-10-17T14:42:27.496Z,37.30
2022-10-17T14:45:00.408Z,37.70
2022-10-17T14:47:42.597Z,38.10
2022-10-17T14:50:12.881Z,38.20
2022-10-17T14:52:40.707Z,38.60
2022-10-17T14:55:26.904Z,38.90
2022-10-17T14:57:54.273Z,39.20
2022-10-17T15:00:22.847Z,39.20
2022-10-17T15:02:51.931Z,39.50
2022-10-17T15:05:20.162Z,39.80
2022-10-17T15:07:47.086Z,40.00
2022-10-17T15:10:32.945Z,40.30
2022-10-17T15:13:16.405Z,41.40
2022-10-17T15:15:51.919Z,40.80
2022-10-17T15:18:19.424Z,41.10
2022-10-17T15:20:46.519Z,41.40
2022-10-17T15:23:13.766Z,41.60
2022-10-17T15:25:40.696Z,41.90
2022-10-17T15:28:10.912Z,42.20
2022-10-17T15:30:37.874Z,42.50
2022-10-17T15:33:05.230Z,42.70
2022-10-17T15:35:32.208Z,42.90
2022-10-17T15:37:59.209Z,43.10
2022-10-17T15:40:29.417Z,43.30
2022-10-17T15:42:56.589Z,43.50
2022-10-17T15:45:24.173Z,43.70
2022-10-17T15:48:04.641Z,43.90
2022-10-17T15:50:32.410Z,44.30
2022-10-17T15:52:59.857Z,44.30
2022-10-17T15:55:27.776Z,44.60
2022-10-17T15:57:54.714Z,44.80
2022-10-17T16:00:24.228Z,45.10
2022-10-17T16:02:51.445Z,45.50
2022-10-17T16:05:29.275Z,45.60
2022-10-17T16:07:57.731Z,46.20
2022-10-17T16:10:25.985Z,46.10
2022-10-17T16:12:53.110Z,46.40
2022-10-17T16:15:27.990Z,46.60
2022-10-17T16:17:57.347Z,47.20
2022-10-17T16:20:25.031Z,47.30
2022-10-17T16:22:59.697Z,47.50
2022-10-17T16:25:29.363Z,47.80
2022-10-17T16:27:58.873Z,48.10
2022-10-17T16:30:29.087Z,48.30
2022-10-17T16:33:00.593Z,48.60
2022-10-17T16:35:35.006Z,48.80
2022-10-17T16:38:07.550Z,49.00
2022-10-17T16:40:34.980Z,49.30
2022-10-17T16:43:02.023Z,49.60
2022-10-17T16:45:28.974Z,49.80
2022-10-17T16:47:56.011Z,50.00
2022-10-17T16:50:23.245Z,50.30
2022-10-17T16:52:50.628Z,50.50
2022-10-17T16:55:18.891Z,50.90
2022-10-17T16:57:48.624Z,51.20
2022-10-17T17:00:16.856Z,51.60
2022-10-17T17:02:44.732Z,51.60
2022-10-17T17:05:11.975Z,51.90
2022-10-17T17:07:39.443Z,52.10
2022-10-17T17:10:07.121Z,52.40
2022-10-17T17:12:35.998Z,52.70
2022-10-17T17:15:04.328Z,53.00
2022-10-17T17:17:48.689Z,53.20
2022-10-17T17:20:17.850Z,53.40
2022-10-17T17:22:44.703Z,53.60
2022-10-17T17:25:11.653Z,53.90
2022-10-17T17:27:38.792Z,54.40
2022-10-17T17:30:06.449Z,54.50
2022-10-17T17:32:33.352Z,54.80
2022-10-17T17:35:00.366Z,55.10
2022-10-17T17:40:18.802Z,55.70
2022-10-17T17:42:45.856Z,55.90
2022-10-17T17:45:12.906Z,56.10
2022-10-17T17:47:40.142Z,56.40
2022-10-17T17:50:07.486Z,56.70
2022-10-17T17:52:34.672Z,56.80
2022-10-17T17:55:01.541Z,57.30
2022-10-17T17:57:30.142Z,57.40
2022-10-17T17:59:57.032Z,57.80
2022-10-17T18:02:23.944Z,58.70
2022-10-17T18:04:50.886Z,58.40
2022-10-17T18:07:17.952Z,58.70
2022-10-17T18:09:44.805Z,59.00
2022-10-17T18:12:12.051Z,59.30
2022-10-17T18:14:38.953Z,59.50
2022-10-17T18:17:05.975Z,59.90
2022-10-17T18:19:33.215Z,60.20
2022-10-17T18:22:00.037Z,60.60
2022-10-17T18:24:27.052Z,60.90
2022-10-17T18:26:58.854Z,61.40
2022-10-17T18:29:26.995Z,61.80
2022-10-17T18:31:54.167Z,62.20
2022-10-17T18:34:21.218Z,62.50
2022-10-17T18:36:48.240Z,62.80
2022-10-17T18:39:15.334Z,63.00
2022-10-17T18:41:42.883Z,63.40
2022-10-17T18:44:12.482Z,63.80
2022-10-17T18:46:41.449Z,64.10
2022-10-17T18:49:14.956Z,64.30
2022-10-17T18:51:42.820Z,64.60
2022-10-17T18:54:16.978Z,64.60
2022-10-17T18:56:44.971Z,65.00
2022-10-17T18:59:11.841Z,65.00
2022-10-17T19:01:39.070Z,65.20
2022-10-17T19:04:06.016Z,65.60
2022-10-17T19:06:33.309Z,65.60
2022-10-17T19:09:03.053Z,65.90
2022-10-17T19:11:32.122Z,66.20
2022-10-17T19:14:03.941Z,67.20
2022-10-17T19:16:37.777Z,66.80
2022-10-17T19:19:23.359Z,67.40
2022-10-17T19:21:50.610Z,67.60
2022-10-17T19:24:25.417Z,67.30
2022-10-17T19:26:56.923Z,67.80
2022-10-17T19:29:28.956Z,68.10
2022-10-17T19:34:28.228Z,68.60
2022-10-17T19:36:55.924Z,68.80
2022-10-17T19:39:24.678Z,69.10
2022-10-17T19:41:51.741Z,69.40
2022-10-17T19:44:19.079Z,69.50
2022-10-17T19:46:49.006Z,69.90
2022-10-17T19:49:16.612Z,70.20
2022-10-17T19:51:44.489Z,70.40
2022-10-17T19:54:11.513Z,70.40
2022-10-17T19:56:38.515Z,70.50
2022-10-17T19:59:07.995Z,71.00
2022-10-17T20:01:38.926Z,70.90
2022-10-17T20:04:08.493Z,70.90
2022-10-17T20:06:35.497Z,70.90
2022-10-17T20:09:04.439Z,71.10
2022-10-17T20:11:31.792Z,71.20
2022-10-17T20:14:01.771Z,71.20
2022-10-17T20:16:33.377Z,71.40
2022-10-17T20:19:09.029Z,71.60
2022-10-17T20:21:37.519Z,71.90
2022-10-17T20:24:08.088Z,71.70
2022-10-17T20:26:38.517Z,71.80
2022-10-17T20:29:12.266Z,71.90
2022-10-17T20:31:41.018Z,72.10
2022-10-17T20:34:10.147Z,72.30
2022-10-17T20:36:37.512Z,72.40
2022-10-17T20:39:05.919Z,72.60
2022-10-17T20:41:33.785Z,72.70
2022-10-17T20:44:00.602Z,72.80
2022-10-17T20:49:19.178Z,73.20
2022-10-17T20:51:46.723Z,73.20
2022-10-17T20:54:13.768Z,73.20
2022-10-17T20:56:40.773Z,73.20
2022-10-17T20:59:16.080Z,73.20
2022-10-17T21:01:45.044Z,73.10
2022-10-17T21:04:45.418Z,73.10
2022-10-17T21:07:00.147Z,73.50
2022-10-17T21:09:27.003Z,73.30
2022-10-17T21:11:56.805Z,73.40
2022-10-17T21:14:25.372Z,73.50
2022-10-17T21:16:52.976Z,73.50
2022-10-17T21:19:21.926Z,73.60
2022-10-17T21:21:49.028Z,73.80
2022-10-17T21:24:17.988Z,73.90
2022-10-17T21:26:47.821Z,74.40
2022-10-17T21:29:14.776Z,75.10
2022-10-17T21:31:44.118Z,74.50
2022-10-17T21:34:18.519Z,74.50
2022-10-17T21:36:45.997Z,74.60
2022-10-17T21:39:14.457Z,74.40
2022-10-17T21:41:42.809Z,74.50
2022-10-17T21:44:17.006Z,74.40
2022-10-17T21:46:44.800Z,74.70
2022-10-17T21:49:13.789Z,74.60
2022-10-17T21:51:41.579Z,74.80
2022-10-17T21:54:08.692Z,74.70
2022-10-17T21:56:36.714Z,74.70
2022-10-17T21:59:04.870Z,74.80
2022-10-17T22:01:38.358Z,75.10
2022-10-17T22:04:08.952Z,75.40
2022-10-17T22:06:40.797Z,75.30
2022-10-17T22:09:14.268Z,75.40
2022-10-17T22:11:41.791Z,75.40
2022-10-17T22:14:14.503Z,75.60
2022-10-17T22:16:42.128Z,75.80
2022-10-17T22:19:11.134Z,75.80
2022-10-17T22:21:38.304Z,75.90
2022-10-17T22:24:08.888Z,76.00
2022-10-17T22:26:37.910Z,76.20
2022-10-17T22:29:07.082Z,76.30
2022-10-17T22:31:35.112Z,76.60
2022-10-17T22:34:02.956Z,76.70
2022-10-17T22:36:31.492Z,76.90
2022-10-17T22:38:58.387Z,77.20
2022-10-17T22:41:25.730Z,77.40
2022-10-17T22:43:52.617Z,77.70
2022-10-17T22:46:19.837Z,78.00
2022-10-17T22:48:46.871Z,78.10
2022-10-17T22:51:14.089Z,78.10
2022-10-17T22:53:41.394Z,78.20
2022-10-17T22:56:33.205Z,78.40
2022-10-17T22:59:00.225Z,78.50
2022-10-17T23:01:27.288Z,78.80
2022-10-17T23:06:45.564Z,79.00
2022-10-17T23:09:13.653Z,78.90
2022-10-17T23:11:40.487Z,79.20
2022-10-17T23:14:07.553Z,79.30
2022-10-17T23:16:34.426Z,79.30
2022-10-17T23:19:01.594Z,79.40
2022-10-17T23:21:28.414Z,79.40
2022-10-17T23:23:55.456Z,79.40
2022-10-17T23:26:22.320Z,79.50
2022-10-17T23:28:54.638Z,79.50
2022-10-17T23:31:22.178Z,79.70
2022-10-17T23:33:50.147Z,79.60
2022-10-17T23:36:20.098Z,79.70
2022-10-17T23:38:48.243Z,79.60
2022-10-17T23:41:16.165Z,79.60
2022-10-17T23:43:43.834Z,79.50
2022-10-17T23:46:11.401Z,79.60
2022-10-17T23:48:39.285Z,79.30
2022-10-17T23:51:07.318Z,79.30
2022-10-17T23:53:35.418Z,79.20
2022-10-17T23:56:02.506Z,79.20
2022-10-17T23:58:29.536Z,79.00
